Time;durP1;ratioP1;P1;durP2;ratioP2;P2;SDS_P1;SDS_P2;PMS_P1;PMS_P2;Temp;Humidity;BMP_temperature;BMP_pressure;BME280_temperature;BME280_humidity;BME280_pressure;Samples;Min_cycle;Max_cycle;Signal;HPM_P1;HPM_P2
2024/03/28 00:00:18;;;;;;;;;2.00;2.00;;;;;13.90;100.00;97519.41;2095092;28;46456;-65
2024/03/28 00:01:18;;;;;;;;;2.33;1.00;;;;;13.89;100.00;97515.88;2104925;28;46387;-65
2024/03/28 00:02:19;;;;;;;;;2.00;2.00;;;;;13.90;100.00;97519.41;2101206;28;46235;-63
2024/03/28 00:03:19;;;;;;;;;2.67;2.67;;;;;13.88;100.00;97514.19;2103375;28;46081;-64
2024/03/28 00:04:20;;;;;;;;;1.00;1.00;;;;;13.82;100.00;97514.72;2086641;28;46531;-63
2024/03/28 00:05:20;;;;;;;;;3.67;1.33;;;;;13.90;100.00;97512.25;2091761;28;46551;-64
2024/03/28 00:06:20;;;;;;;;;1.00;1.00;;;;;13.92;100.00;97520.09;2101439;28;46643;-63
2024/03/28 00:07:21;;;;;;;;;2.33;2.33;;;;;13.90;100.00;97514.06;2101189;28;46768;-64
2024/03/28 00:08:21;;;;;;;;;2.00;2.00;;;;;13.93;100.00;97519.13;2104570;28;46259;-63
2024/03/28 00:09:22;;;;;;;;;2.00;2.00;;;;;13.97;100.00;97525.88;2103725;27;46475;-64
2024/03/28 00:10:22;;;;;;;;;0.00;0.00;;;;;13.98;100.00;97536.44;2101264;27;45510;-66
2024/03/28 00:11:22;;;;;;;;;2.00;2.00;;;;;14.00;100.00;97522.97;2099132;28;46355;-64
2024/03/28 00:12:23;;;;;;;;;2.00;2.00;;;;;14.01;100.00;97533.50;2100636;28;46236;-63
2024/03/28 00:13:23;;;;;;;;;1.00;1.00;;;;;14.02;100.00;97540.50;2105290;27;46685;-64
2024/03/28 00:14:26;;;;;;;;;1.00;1.00;;;;;14.04;100.00;97548.38;2104913;27;46534;-63
2024/03/28 00:15:26;;;;;;;;;2.00;2.00;;;;;14.03;100.00;97544.03;2105302;27;46764;-64
2024/03/28 00:16:27;;;;;;;;;1.33;1.33;;;;;13.99;100.00;97548.78;2104343;27;46218;-64
2024/03/28 00:17:27;;;;;;;;;2.67;2.00;;;;;13.92;100.00;97552.94;2104879;27;46666;-64
2024/03/28 00:18:29;;;;;;;;;2.00;2.00;;;;;13.89;100.00;97549.69;2105042;27;46520;-64
2024/03/28 00:19:29;;;;;;;;;1.25;1.25;;;;;13.86;100.00;97552.63;2105064;27;46764;-64
2024/03/28 00:20:29;;;;;;;;;2.00;1.67;;;;;13.84;100.00;97545.56;2104471;28;46782;-64
2024/03/28 00:21:30;;;;;;;;;2.00;2.00;;;;;13.83;100.00;97562.53;2103139;28;46708;-64
2024/03/28 00:22:31;;;;;;;;;3.00;2.00;;;;;13.81;100.00;97564.50;2103012;28;46378;-63
2024/03/28 00:23:31;;;;;;;;;1.00;1.00;;;;;13.93;100.00;97561.78;2099020;27;47519;-63
2024/03/28 00:24:31;;;;;;;;;1.00;1.00;;;;;13.94;100.00;97560.78;2103823;28;46381;-65
2024/03/28 00:25:32;;;;;;;;;1.00;1.00;;;;;13.93;100.00;97562.63;2097315;28;45514;-64
2024/03/28 00:26:32;;;;;;;;;1.67;1.67;;;;;13.94;100.00;97563.47;2101221;28;46360;-63
2024/03/28 00:27:33;;;;;;;;;1.00;1.00;;;;;13.89;100.00;97563.88;2101691;28;46494;-63
2024/03/28 00:28:33;;;;;;;;;2.67;2.67;;;;;13.84;100.00;97556.25;2102593;28;45517;-64
2024/03/28 00:29:33;;;;;;;;;1.67;1.67;;;;;13.82;100.00;97554.69;2104501;28;46697;-64
2024/03/28 00:30:35;;;;;;;;;1.00;1.00;;;;;13.80;100.00;97559.31;2104333;28;46577;-63
2024/03/28 00:31:35;;;;;;;;;2.00;2.00;;;;;13.70;100.00;97561.91;2098829;28;46834;-61
2024/03/28 00:32:35;;;;;;;;;2.67;1.00;;;;;13.69;100.00;97562.88;2103189;28;45627;-64
2024/03/28 00:33:35;;;;;;;;;2.33;2.00;;;;;13.67;100.00;97554.16;2104311;28;46220;-63
2024/03/28 00:34:36;;;;;;;;;1.00;1.00;;;;;13.64;100.00;97562.44;2104742;27;46667;-63
2024/03/28 00:35:44;;;;;;;;;1.00;1.00;;;;;13.60;100.00;97563.69;2101522;27;47009;-63
2024/03/28 00:36:44;;;;;;;;;3.75;2.25;;;;;13.55;100.00;97557.88;2100636;28;46641;-64
2024/03/28 00:37:44;;;;;;;;;1.00;1.00;;;;;13.51;100.00;97548.47;2091366;28;46349;-63
2024/03/28 00:38:45;;;;;;;;;3.00;1.33;;;;;13.48;100.00;97554.03;2090397;28;46411;-67
2024/03/28 00:39:49;;;;;;;;;2.00;1.00;;;;;13.49;100.00;97550.41;2100686;28;46217;-65
2024/03/28 00:40:52;;;;;;;;;1.50;1.50;;;;;13.46;100.00;97548.81;2104311;27;46045;-64
2024/03/28 00:41:52;;;;;;;;;1.00;1.00;;;;;13.46;100.00;97556.81;2104261;27;46994;-64
2024/03/28 00:42:52;;;;;;;;;1.00;1.00;;;;;13.49;100.00;97545.09;2100484;27;46459;-63
2024/03/28 00:43:53;;;;;;;;;2.00;1.00;;;;;13.50;100.00;97549.44;2100826;28;46872;-62
2024/03/28 00:44:53;;;;;;;;;1.67;1.00;;;;;13.50;100.00;97541.44;2097148;28;45620;-65
2024/03/28 00:45:54;;;;;;;;;1.00;1.00;;;;;13.48;100.00;97544.22;2103261;28;46366;-64
2024/03/28 00:46:54;;;;;;;;;1.00;1.00;;;;;13.50;100.00;97541.44;2100112;28;47022;-64
2024/03/28 00:47:55;;;;;;;;;1.00;1.00;;;;;13.50;100.00;97539.63;2099377;28;46233;-64
2024/03/28 00:48:55;;;;;;;;;0.75;0.75;;;;;13.52;100.00;97547.47;2103412;28;46192;-62
2024/03/28 00:49:56;;;;;;;;;2.00;1.00;;;;;13.50;100.00;97536.13;2104273;27;46292;-61
2024/03/28 00:50:58;;;;;;;;;1.33;1.33;;;;;13.51;100.00;97533.31;2104730;27;46339;-64
2024/03/28 00:51:58;;;;;;;;;2.25;2.00;;;;;13.50;100.00;97523.63;2104540;27;46713;-63
2024/03/28 00:52:59;;;;;;;;;1.00;1.00;;;;;13.50;100.00;97518.31;2099441;27;46374;-64
2024/03/28 00:53:59;;;;;;;;;1.67;1.67;;;;;13.48;100.00;97520.25;2103525;27;46627;-63
2024/03/28 00:54:59;;;;;;;;;1.00;1.00;;;;;13.49;100.00;97518.44;2100204;28;46130;-64
2024/03/28 00:56:00;;;;;;;;;1.00;1.00;;;;;13.49;100.00;97518.44;2100847;27;46636;-64
2024/03/28 00:57:00;;;;;;;;;3.00;1.00;;;;;13.51;100.00;97521.81;2102443;28;46477;-63
2024/03/28 00:58:00;;;;;;;;;1.00;1.00;;;;;13.50;100.00;97517.47;2099744;28;46358;-62
2024/03/28 00:59:01;;;;;;;;;1.00;1.00;;;;;13.49;100.00;97521.94;2103055;28;45991;-64
2024/03/28 01:00:01;;;;;;;;;0.00;0.00;;;;;13.48;100.00;97511.44;2098527;28;46717;-63
2024/03/28 01:01:02;;;;;;;;;1.00;1.00;;;;;13.46;100.00;97514.19;2100496;27;46298;-63
2024/03/28 01:02:03;;;;;;;;;1.00;1.00;;;;;13.44;100.00;97507.31;2105229;28;46372;-63
2024/03/28 01:03:03;;;;;;;;;1.67;0.67;;;;;13.41;100.00;97513.75;2094900;28;46470;-64
2024/03/28 01:04:04;;;;;;;;;1.00;1.00;;;;;13.34;100.00;97514.38;2095096;28;46334;-64
2024/03/28 01:05:04;;;;;;;;;1.00;1.00;;;;;13.29;100.00;97505.94;2113029;27;46456;-63
2024/03/28 01:06:05;;;;;;;;;1.00;1.00;;;;;13.29;100.00;97509.44;2108237;27;46847;-63
2024/03/28 01:07:05;;;;;;;;;2.67;2.67;;;;;13.29;100.00;97505.94;2104804;27;46402;-63
2024/03/28 01:08:06;;;;;;;;;1.00;1.00;;;;;13.00;100.00;97509.19;2104685;27;46433;-63
2024/03/28 01:09:06;;;;;;;;;1.00;1.00;;;;;13.40;100.00;97509.41;2094670;28;46272;-64
2024/03/28 01:10:07;;;;;;;;;1.67;1.67;;;;;13.39;100.00;97502.38;2095079;28;45902;-62
2024/03/28 01:11:07;;;;;;;;;1.00;1.00;;;;;13.40;100.00;97495.22;2094754;28;46428;-63
2024/03/28 01:12:08;;;;;;;;;1.33;1.00;;;;;13.33;100.00;97486.06;2095107;28;46528;-62
2024/03/28 01:13:08;;;;;;;;;2.67;2.00;;;;;13.29;100.00;97476.66;2104246;28;46738;-63
2024/03/28 01:14:08;;;;;;;;;1.00;1.00;;;;;13.27;100.00;97468.78;2098440;27;46464;-62
2024/03/28 01:15:09;;;;;;;;;2.00;2.00;;;;;13.31;100.00;97464.03;2102961;27;46300;-63
2024/03/28 01:16:09;;;;;;;;;1.00;1.00;;;;;13.30;100.00;97451.72;2097750;28;46740;-62
2024/03/28 01:17:09;;;;;;;;;0.00;0.00;;;;;13.28;100.00;97440.34;2103280;27;46540;-61
2024/03/28 01:18:10;;;;;;;;;1.33;1.33;;;;;13.25;100.00;97434.31;2100006;27;46226;-63
2024/03/28 01:19:10;;;;;;;;;3.67;1.00;;;;;13.23;100.00;97443.41;2103986;27;46441;-62
2024/03/28 01:20:11;;;;;;;;;1.00;1.00;;;;;13.21;100.00;97443.53;2102443;27;46361;-64
2024/03/28 01:21:12;;;;;;;;;1.00;1.00;;;;;13.16;100.00;97443.03;2102512;28;45537;-63
2024/03/28 01:22:12;;;;;;;;;1.00;1.00;;;;;13.18;100.00;97440.22;2101078;28;46474;-63
2024/03/28 01:23:12;;;;;;;;;2.00;1.00;;;;;13.20;100.00;97436.50;2091767;28;46712;-63
2024/03/28 01:24:13;;;;;;;;;1.00;1.00;;;;;13.21;100.00;97432.88;2094788;28;46779;-62
2024/03/28 01:25:13;;;;;;;;;1.00;1.00;;;;;13.22;100.00;97444.38;2104513;28;46259;-62
2024/03/28 01:26:13;;;;;;;;;1.00;1.00;;;;;13.21;100.00;97443.53;2086095;28;46381;-63
2024/03/28 01:27:14;;;;;;;;;1.67;1.00;;;;;13.17;100.00;97434.06;2085635;28;45912;-63
2024/03/28 01:28:14;;;;;;;;;2.00;2.00;;;;;13.17;100.00;97446.53;2104314;28;46530;-63
2024/03/28 01:29:14;;;;;;;;;1.00;1.00;;;;;13.21;100.00;97458.63;2078147;28;45575;-63
2024/03/28 01:30:14;;;;;;;;;1.00;1.00;;;;;13.17;100.00;97458.03;2078140;28;46791;-63
2024/03/28 01:31:15;;;;;;;;;1.67;1.67;;;;;13.18;100.00;97478.38;2103664;28;46430;-64
2024/03/28 01:32:15;;;;;;;;;1.00;1.00;;;;;13.17;100.00;97465.19;2104425;27;46177;-63
2024/03/28 01:33:15;;;;;;;;;1.33;1.33;;;;;13.16;100.00;97464.34;2101230;28;46694;-64
2024/03/28 01:34:16;;;;;;;;;0.33;0.33;;;;;13.15;100.00;97459.13;2104100;27;46918;-64
2024/03/28 01:35:16;;;;;;;;;1.00;1.00;;;;;13.17;100.00;97459.84;2102413;28;46424;-65
2024/03/28 01:36:16;;;;;;;;;1.00;1.00;;;;;13.18;100.00;97448.22;2102939;27;46344;-63
2024/03/28 01:37:17;;;;;;;;;1.00;1.00;;;;;13.20;100.00;97452.47;2100945;28;46639;-64
2024/03/28 01:38:17;;;;;;;;;1.00;1.00;;;;;13.20;100.00;97446.31;2103834;28;46379;-62
2024/03/28 01:39:17;;;;;;;;;1.33;1.33;;;;;13.21;100.00;97440.88;2103993;28;46304;-64
2024/03/28 01:40:18;;;;;;;;;1.00;1.00;;;;;13.21;100.00;97438.22;2103882;28;46814;-64
2024/03/28 01:41:18;;;;;;;;;2.00;2.00;;;;;13.24;100.00;97439.78;2104548;27;46240;-62
2024/03/28 01:42:18;;;;;;;;;2.00;2.00;;;;;13.22;100.00;97449.72;2104330;27;46822;-64
2024/03/28 01:43:19;;;;;;;;;1.00;1.00;;;;;13.24;100.00;97453.94;2103422;27;46708;-65
2024/03/28 01:44:20;;;;;;;;;1.67;1.67;;;;;13.24;100.00;97453.94;2104380;27;46516;-63
2024/03/28 01:45:21;;;;;;;;;2.25;2.25;;;;;13.24;100.00;97461.91;2103619;28;46861;-63
2024/03/28 01:46:21;;;;;;;;;1.00;1.00;;;;;13.26;100.00;97464.44;2103730;28;46644;-63
2024/03/28 01:47:23;;;;;;;;;2.67;2.67;;;;;13.29;100.00;97463.34;2103765;28;46533;-64
2024/03/28 01:48:23;;;;;;;;;1.25;1.25;;;;;13.29;100.00;97460.66;2103841;27;46594;-65
2024/03/28 01:49:25;;;;;;;;;1.67;1.67;;;;;13.27;100.00;97463.47;2101360;27;47424;-62
2024/03/28 01:50:27;;;;;;;;;2.00;2.00;;;;;13.25;100.00;97465.41;2099307;27;46283;-63
2024/03/28 01:51:27;;;;;;;;;2.75;2.00;;;;;13.24;100.00;97466.41;2104442;27;45298;-62
2024/03/28 01:52:28;;;;;;;;;1.00;1.00;;;;;13.23;100.00;97478.88;2105116;27;46324;-62
2024/03/28 01:53:29;;;;;;;;;1.00;1.00;;;;;13.23;100.00;97481.53;2095727;28;46557;-63
2024/03/28 01:54:33;;;;;;;;;2.00;2.00;;;;;13.23;100.00;97473.53;2094437;28;46468;-64
2024/03/28 01:55:34;;;;;;;;;1.25;1.25;;;;;13.20;100.00;97473.78;2098481;28;46689;-63
2024/03/28 01:56:35;;;;;;;;;1.00;1.00;;;;;13.20;100.00;97472.94;2105512;27;46290;-62
2024/03/28 01:57:35;;;;;;;;;2.00;2.00;;;;;13.19;100.00;97476.56;2105917;27;47192;-64
2024/03/28 01:58:36;;;;;;;;;1.00;1.00;;;;;13.18;100.00;97477.50;2099250;27;46651;-64
2024/03/28 01:59:38;;;;;;;;;2.33;1.00;;;;;13.17;100.00;97476.66;2098157;28;47010;-63
2024/03/28 02:00:39;;;;;;;;;1.25;1.00;;;;;13.17;100.00;97479.34;2097205;28;46565;-64
2024/03/28 02:01:40;;;;;;;;;3.00;2.00;;;;;13.18;100.00;97480.19;2098943;27;45666;-63
2024/03/28 02:02:41;;;;;;;;;1.75;1.75;;;;;13.18;100.00;97485.50;2102951;27;48058;-62
2024/03/28 02:03:41;;;;;;;;;1.00;1.00;;;;;13.16;100.00;97484.78;2098206;27;46338;-63
2024/03/28 02:04:42;;;;;;;;;2.00;2.00;;;;;13.14;100.00;97484.06;2098576;28;46147;-64
2024/03/28 02:05:42;;;;;;;;;1.00;1.00;;;;;13.11;100.00;97482.53;2098464;28;46428;-62
2024/03/28 02:06:42;;;;;;;;;1.33;1.33;;;;;13.11;100.00;97482.53;2105441;27;47878;-63
2024/03/28 02:07:43;;;;;;;;;2.00;2.00;;;;;13.12;100.00;97478.03;2103683;27;46664;-63
2024/03/28 02:08:43;;;;;;;;;1.00;1.00;;;;;13.12;100.00;97488.69;2097152;28;46658;-62
2024/03/28 02:09:43;;;;;;;;;1.00;0.33;;;;;13.10;100.00;97485.31;2098772;28;46171;-63
2024/03/28 02:10:45;;;;;;;;;2.00;1.00;;;;;13.09;100.00;97478.31;2097745;28;47831;-63
2024/03/28 02:11:46;;;;;;;;;2.00;2.00;;;;;13.06;100.00;97474.06;2100806;27;46976;-63
2024/03/28 02:12:46;;;;;;;;;2.00;2.00;;;;;13.05;100.00;97475.03;2102726;28;46766;-63
2024/03/28 02:13:46;;;;;;;;;1.67;1.67;;;;;13.05;100.00;97464.38;2097423;28;46421;-64
2024/03/28 02:14:47;;;;;;;;;1.00;1.00;;;;;13.03;100.00;97469.00;2098531;28;46576;-63
2024/03/28 02:15:47;;;;;;;;;2.00;2.00;;;;;13.03;100.00;97462.81;2099084;28;46594;-64
2024/03/28 02:16:48;;;;;;;;;1.67;1.67;;;;;13.04;100.00;97472.50;2105460;27;46521;-62
2024/03/28 02:17:49;;;;;;;;;1.00;1.00;;;;;13.02;100.00;97467.31;2102364;28;45710;-63
2024/03/28 02:18:55;;;;;;;;;1.00;1.00;;;;;13.02;100.00;97466.47;2101816;28;46521;-63
2024/03/28 02:19:55;;;;;;;;;1.50;1.50;;;;;12.98;100.00;97467.69;2105381;28;46564;-63
2024/03/28 02:20:56;;;;;;;;;1.00;1.00;;;;;12.94;100.00;97467.94;2101733;28;46626;-63
2024/03/28 02:21:59;;;;;;;;;1.50;1.50;;;;;12.95;100.00;97477.59;2100450;28;46440;-62
2024/03/28 02:22:59;;;;;;;;;0.75;0.75;;;;;12.97;100.00;97472.19;2087481;28;46397;-63
2024/03/28 02:24:00;;;;;;;;;0.00;0.00;;;;;12.95;100.00;97472.28;2085423;28;46773;-62
2024/03/28 02:25:01;;;;;;;;;1.00;1.00;;;;;12.93;100.00;97482.22;2103016;27;46419;-64
2024/03/28 02:26:01;;;;;;;;;1.00;1.00;;;;;12.90;100.00;97485.13;2103885;28;46498;-64
2024/03/28 02:27:01;;;;;;;;;1.00;1.00;;;;;12.90;100.00;97477.16;2087241;28;46308;-64
2024/03/28 02:28:02;;;;;;;;;1.00;1.00;;;;;12.87;100.00;97482.75;2087728;28;46623;-64
2024/03/28 02:29:02;;;;;;;;;1.00;1.00;;;;;12.87;100.00;97471.25;2101691;28;46445;-63
2024/03/28 02:30:11;;;;;;;;;1.00;1.00;;;;;12.88;100.00;97478.25;2101925;28;46190;-63
2024/03/28 02:31:11;;;;;;;;;4.50;4.50;;;;;12.89;100.00;97478.13;2097170;28;46429;-63
2024/03/28 02:32:12;;;;;;;;;3.00;2.00;;;;;12.89;100.00;97474.63;2100874;28;46720;-62
2024/03/28 02:33:12;;;;;;;;;2.67;2.67;;;;;12.89;100.00;97479.94;2101537;27;46606;-62
2024/03/28 02:34:12;;;;;;;;;3.33;2.00;;;;;12.89;100.00;97479.94;2096832;28;46756;-63
2024/03/28 02:35:13;;;;;;;;;1.00;1.00;;;;;12.89;100.00;97475.47;2104312;28;46486;-63
2024/03/28 02:36:13;;;;;;;;;2.00;1.00;;;;;12.89;100.00;97482.59;2103917;27;46322;-63
2024/03/28 02:37:13;;;;;;;;;1.00;1.00;;;;;12.84;100.00;97476.84;2099845;27;46551;-62
2024/03/28 02:38:14;;;;;;;;;1.00;1.00;;;;;12.81;100.00;97480.56;2105429;27;45444;-62
2024/03/28 02:39:15;;;;;;;;;1.33;1.33;;;;;12.76;100.00;97479.25;2104712;28;45585;-62
2024/03/28 02:40:15;;;;;;;;;2.00;2.00;;;;;12.72;100.00;97493.81;2105958;27;46326;-66
2024/03/28 02:41:20;;;;;;;;;1.33;1.33;;;;;12.81;100.00;97477.06;2101660;28;46771;-62
2024/03/28 02:42:20;;;;;;;;;1.00;1.00;;;;;12.79;100.00;97477.19;2103589;28;45154;-63
2024/03/28 02:43:20;;;;;;;;;1.00;1.00;;;;;12.80;100.00;97467.38;2103790;28;46618;-63
2024/03/28 02:44:21;;;;;;;;;1.00;1.00;;;;;12.80;100.00;97475.38;2104950;27;46166;-64
2024/03/28 02:45:21;;;;;;;;;1.00;1.00;;;;;12.78;100.00;97486.16;2105425;27;46339;-63
2024/03/28 02:46:21;;;;;;;;;1.00;1.00;;;;;12.77;100.00;97480.94;2099465;28;46840;-63
2024/03/28 02:47:22;;;;;;;;;0.67;0.67;;;;;12.79;100.00;97479.84;2104274;28;46263;-64
2024/03/28 02:48:22;;;;;;;;;0.33;0.00;;;;;12.77;100.00;97486.28;2100007;28;45201;-62
2024/03/28 02:49:23;;;;;;;;;1.00;1.00;;;;;12.76;100.00;97489.91;2101382;28;46958;-62
2024/03/28 02:50:24;;;;;;;;;0.00;0.00;;;;;12.76;100.00;97489.91;2103192;28;46855;-64
2024/03/28 02:51:24;;;;;;;;;0.00;0.00;;;;;12.76;100.00;97482.78;2098906;28;46382;-63
2024/03/28 02:52:25;;;;;;;;;1.00;1.00;;;;;12.76;100.00;97495.22;2095525;28;46587;-63
2024/03/28 02:53:25;;;;;;;;;1.67;1.00;;;;;12.74;100.00;97497.19;2079103;28;46092;-63
2024/03/28 02:54:25;;;;;;;;;0.67;0.67;;;;;12.72;100.00;97484.00;2095068;28;45576;-62
2024/03/28 02:55:26;;;;;;;;;0.33;0.00;;;;;12.72;100.00;97491.97;2103828;28;46533;-62
2024/03/28 02:56:26;;;;;;;;;1.00;1.00;;;;;12.73;100.00;97512.28;2105310;27;47181;-65
2024/03/28 02:57:26;;;;;;;;;0.00;0.00;;;;;12.72;100.00;97497.31;2091371;28;47114;-62
2024/03/28 02:58:27;;;;;;;;;1.00;1.00;;;;;12.67;100.00;97491.50;2095377;28;46988;-63
2024/03/28 02:59:28;;;;;;;;;0.00;0.00;;;;;12.68;100.00;97499.34;2105101;27;46726;-63
2024/03/28 03:00:28;;;;;;;;;0.33;0.33;;;;;12.67;100.00;97486.16;2103006;27;46525;-62
2024/03/28 03:01:29;;;;;;;;;0.67;0.67;;;;;12.65;100.00;97501.41;2100936;28;46167;-63
2024/03/28 03:02:29;;;;;;;;;0.00;0.00;;;;;12.67;100.00;97518.09;2099596;27;46700;-64
2024/03/28 03:03:29;;;;;;;;;0.00;0.00;;;;;12.65;100.00;97507.59;2087608;28;46829;-64
2024/03/28 03:04:29;;;;;;;;;1.00;0.00;;;;;12.65;100.00;97517.38;2095149;28;46567;-64
2024/03/28 03:05:30;;;;;;;;;1.00;1.00;;;;;12.63;100.00;97511.34;2101235;28;46792;-63
2024/03/28 03:06:30;;;;;;;;;0.00;0.00;;;;;12.61;100.00;97507.97;2103787;28;45997;-64
2024/03/28 03:07:30;;;;;;;;;0.67;0.67;;;;;12.62;100.00;97509.66;2105016;28;45706;-64
2024/03/28 03:08:31;;;;;;;;;0.00;0.00;;;;;12.62;100.00;97512.31;2105592;28;46927;-64
2024/03/28 03:09:31;;;;;;;;;0.00;0.00;;;;;12.62;100.00;97512.31;2104744;27;46426;-63
2024/03/28 03:10:31;;;;;;;;;1.00;1.00;;;;;12.63;100.00;97496.22;2104947;28;46761;-62
2024/03/28 03:11:32;;;;;;;;;0.00;0.00;;;;;12.61;100.00;97502.66;2103578;28;46630;-62
2024/03/28 03:12:32;;;;;;;;;0.00;0.00;;;;;12.62;100.00;97499.84;2104070;27;46432;-63
2024/03/28 03:13:32;;;;;;;;;0.00;0.00;;;;;12.60;100.00;97496.47;2102812;27;46272;-63
2024/03/28 03:14:33;;;;;;;;;0.00;0.00;;;;;12.58;100.00;97495.78;2105297;28;46446;-64
2024/03/28 03:15:33;;;;;;;;;3.00;0.33;;;;;12.56;100.00;97489.69;2105300;27;46311;-64
2024/03/28 03:16:34;;;;;;;;;0.00;0.00;;;;;12.56;100.00;97500.34;2101021;27;46390;-64
2024/03/28 03:17:36;;;;;;;;;0.00;0.00;;;;;12.56;100.00;97486.19;2098827;27;46925;-64
2024/03/28 03:18:37;;;;;;;;;0.00;0.00;;;;;12.55;100.00;97490.69;2097014;28;45621;-64
2024/03/28 03:19:37;;;;;;;;;0.00;0.00;;;;;12.53;100.00;97487.28;2101170;28;46825;-63
2024/03/28 03:20:43;;;;;;;;;0.00;0.00;;;;;12.54;100.00;97485.47;2098589;28;46330;-62
2024/03/28 03:21:43;;;;;;;;;0.00;0.00;;;;;12.53;100.00;97481.13;2100480;28;46935;-62
2024/03/28 03:22:52;;;;;;;;;0.00;0.00;;;;;12.52;100.00;97482.94;2103426;27;46167;-64
2024/03/28 03:24:00;;;;;;;;;0.00;0.00;;;;;12.49;100.00;97493.00;2098409;28;46451;-63
2024/03/28 03:25:10;;;;;;;;;0.50;0.50;;;;;12.50;100.00;97505.31;2105202;27;46346;-63
2024/03/28 03:26:19;;;;;;;;;0.00;0.00;;;;;12.49;100.00;97517.78;2101741;27;46441;-62
2024/03/28 03:27:20;;;;;;;;;1.25;0.00;;;;;12.35;100.00;97510.06;2100391;28;46353;-62
2024/03/28 03:34:34;;;;;;;;;0.00;0.00;;;;;12.17;100.00;97516.81;2104390;28;46378;-62
2024/03/28 03:35:15;;;;;;;;;0.00;0.00;;;;;12.12;100.00;97521.69;2096892;28;48390;-63
2024/03/28 03:36:15;;;;;;;;;0.00;0.00;;;;;12.10;100.00;97526.28;2102517;28;46274;-63
2024/03/28 03:37:19;;;;;;;;;0.00;0.00;;;;;12.10;100.00;97543.06;2100051;28;46672;-62
2024/03/28 03:38:20;;;;;;;;;0.00;0.00;;;;;12.19;100.00;97531.69;2097216;28;46526;-62
2024/03/28 03:39:20;;;;;;;;;0.00;0.00;;;;;12.24;100.00;97545.47;2105410;27;46712;-61
2024/03/28 03:40:20;;;;;;;;;0.00;0.00;;;;;12.27;100.00;97547.88;2104067;28;46316;-63
2024/03/28 03:41:21;;;;;;;;;0.00;0.00;;;;;12.26;100.00;97543.53;2096769;28;46392;-63
2024/03/28 03:42:21;;;;;;;;;0.00;0.00;;;;;12.22;100.00;97539.44;2099218;28;46315;-63
2024/03/28 03:43:21;;;;;;;;;0.00;0.00;;;;;12.26;100.00;97545.34;2098036;28;46200;-64
2024/03/28 03:44:22;;;;;;;;;0.00;0.00;;;;;12.28;100.00;97544.25;2101782;27;46324;-64
2024/03/28 03:45:22;;;;;;;;;0.00;0.00;;;;;12.29;100.00;97553.94;2102564;27;46786;-63
2024/03/28 03:46:22;;;;;;;;;0.00;0.00;;;;;12.29;100.00;97559.25;2102687;28;46271;-65
2024/03/28 03:47:23;;;;;;;;;0.00;0.00;;;;;12.30;100.00;97555.63;2104746;28;46247;-63
2024/03/28 03:48:23;;;;;;;;;0.00;0.00;;;;;12.29;100.00;97563.72;2104753;28;46827;-64
2024/03/28 03:49:23;;;;;;;;;0.00;0.00;;;;;12.28;100.00;97554.91;2104621;28;46553;-63
2024/03/28 03:50:23;;;;;;;;;0.00;0.00;;;;;12.30;100.00;97560.09;2106337;27;46458;-63
2024/03/28 03:51:24;;;;;;;;;0.00;0.00;;;;;12.29;100.00;97561.06;2097211;28;46448;-63
2024/03/28 03:52:24;;;;;;;;;1.00;0.00;;;;;12.29;100.00;97564.56;2098059;28;46951;-66
2024/03/28 03:53:24;;;;;;;;;0.00;0.00;;;;;12.27;100.00;97570.97;2098384;28;46712;-64
2024/03/28 03:54:25;;;;;;;;;0.00;0.00;;;;;12.26;100.00;97571.94;2098884;27;45603;-64
2024/03/28 03:55:25;;;;;;;;;0.00;0.00;;;;;12.24;100.00;97556.13;2104596;28;46384;-63
2024/03/28 03:56:26;;;;;;;;;0.00;0.00;;;;;12.25;100.00;97564.94;2104887;28;46891;-63
2024/03/28 03:57:26;;;;;;;;;0.00;0.00;;;;;12.30;100.00;97554.78;2096754;28;46519;-64
2024/03/28 03:58:27;;;;;;;;;0.00;0.00;;;;;12.27;100.00;97563.84;2098345;28;46200;-63
2024/03/28 03:59:28;;;;;;;;;0.00;0.00;;;;;12.25;100.00;97560.47;2097177;28;46295;-63
2024/03/28 04:00:28;;;;;;;;;0.00;0.00;;;;;12.26;100.00;97553.34;2099022;28;46272;-64
2024/03/28 04:01:28;;;;;;;;;0.00;0.00;;;;;12.17;100.00;97562.03;2103479;28;46248;-63
2024/03/28 04:02:29;;;;;;;;;0.00;0.00;;;;;12.11;100.00;97562.50;2104004;28;46808;-64
2024/03/28 04:03:29;;;;;;;;;0.00;0.00;;;;;12.07;100.00;97567.22;2101648;28;46647;-63
2024/03/28 04:04:30;;;;;;;;;0.00;0.00;;;;;12.06;100.00;97574.31;2105102;28;45620;-62
2024/03/28 04:05:33;;;;;;;;;1.00;0.00;;;;;12.04;100.00;97570.94;2096664;28;46616;-63
2024/03/28 04:06:34;;;;;;;;;0.00;0.00;;;;;12.06;100.00;97589.44;2101937;28;46306;-63
2024/03/28 04:07:34;;;;;;;;;0.00;0.00;;;;;12.16;100.00;97592.22;2105221;27;45556;-64
2024/03/28 04:08:35;;;;;;;;;0.00;0.00;;;;;12.17;100.00;97600.09;2099701;27;46646;-63
2024/03/28 04:09:35;;;;;;;;;0.00;0.00;;;;;12.20;100.00;97599.03;2102275;27;46772;-63
2024/03/28 04:10:36;;;;;;;;;0.00;0.00;;;;;12.20;100.00;97599.03;2096726;28;46582;-64
2024/03/28 04:11:37;;;;;;;;;0.00;0.00;;;;;12.19;100.00;97591.97;2103260;28;46745;-63
2024/03/28 04:12:37;;;;;;;;;0.00;0.00;;;;;12.14;100.00;97620.75;2104998;28;46862;-63
2024/03/28 04:13:37;;;;;;;;;0.00;0.00;;;;;12.12;100.00;97620.88;2105443;28;46187;-63
2024/03/28 04:14:38;;;;;;;;;0.00;0.00;;;;;12.13;100.00;97627.03;2100068;28;46413;-64
2024/03/28 04:15:38;;;;;;;;;0.00;0.00;;;;;12.07;100.00;97617.72;2096017;28;45578;-64
2024/03/28 04:16:40;;;;;;;;;0.00;0.00;;;;;12.07;100.00;97629.22;2096750;28;45686;-63
2024/03/28 04:17:40;;;;;;;;;0.00;0.00;;;;;12.06;100.00;97634.63;2097182;28;46541;-64
2024/03/28 04:18:40;;;;;;;;;0.00;0.00;;;;;12.01;100.00;97650.94;2098772;28;45413;-64
2024/03/28 04:19:41;;;;;;;;;0.00;0.00;;;;;12.01;100.00;97640.28;2098444;27;46390;-63
2024/03/28 04:20:41;;;;;;;;;0.00;0.00;;;;;12.02;100.00;97649.97;2101958;28;45822;-64
2024/03/28 04:21:41;;;;;;;;;0.00;0.00;;;;;12.00;100.00;97654.56;2097687;28;46212;-63
2024/03/28 04:22:42;;;;;;;;;0.00;0.00;;;;;12.01;100.00;97661.56;2103459;28;46394;-64
2024/03/28 04:23:42;;;;;;;;;0.00;0.00;;;;;12.02;100.00;97657.09;2104955;27;46327;-63
2024/03/28 04:24:42;;;;;;;;;0.67;0.00;;;;;12.03;100.00;97669.41;2100996;27;46469;-63
2024/03/28 04:25:43;;;;;;;;;1.00;0.00;;;;;12.05;100.00;97670.97;2104714;27;46332;-63
2024/03/28 04:26:43;;;;;;;;;0.00;0.00;;;;;12.10;100.00;97681.28;2105010;28;46338;-64
2024/03/28 04:27:44;;;;;;;;;0.00;0.00;;;;;12.06;100.00;97680.66;2104634;28;47796;-62
2024/03/28 04:28:44;;;;;;;;;0.00;0.00;;;;;12.06;100.00;97685.13;2104066;28;46422;-62
2024/03/28 04:29:45;;;;;;;;;0.00;0.00;;;;;12.04;100.00;97692.38;2105168;28;47026;-63
2024/03/28 04:30:45;;;;;;;;;0.00;0.00;;;;;12.01;100.00;97697.91;2104342;28;46808;-62
2024/03/28 04:31:46;;;;;;;;;0.00;0.00;;;;;11.99;100.00;97702.50;2105021;28;46402;-63
2024/03/28 04:32:46;;;;;;;;;0.00;0.00;;;;;11.95;100.00;97696.59;2104392;28;46827;-62
2024/03/28 04:33:48;;;;;;;;;0.00;0.00;;;;;11.93;100.00;97703.81;2104256;28;46739;-63
2024/03/28 04:34:48;;;;;;;;;0.00;0.00;;;;;11.93;100.00;97705.59;2101141;27;46383;-63
2024/03/28 04:35:49;;;;;;;;;0.00;0.00;;;;;11.91;100.00;97720.81;2110312;27;45736;-62
2024/03/28 04:36:49;;;;;;;;;0.00;0.00;;;;;11.90;100.00;97717.31;2109336;27;45964;-62
2024/03/28 04:37:51;;;;;;;;;0.00;0.00;;;;;11.91;100.00;97716.34;2104408;27;46580;-64
2024/03/28 04:38:51;;;;;;;;;0.00;0.00;;;;;11.90;100.00;97724.44;2100889;27;46501;-63
2024/03/28 04:39:51;;;;;;;;;0.00;0.00;;;;;11.88;100.00;97723.72;2096887;28;46336;-65
2024/03/28 04:40:51;;;;;;;;;0.00;0.00;;;;;11.89;100.00;97723.59;2096235;28;46235;-63
2024/03/28 04:41:52;;;;;;;;;0.00;0.00;;;;;11.87;100.00;97727.34;2098854;28;45547;-63
2024/03/28 04:42:52;;;;;;;;;0.00;0.00;;;;;11.85;100.00;97716.00;2097033;28;46985;-64
2024/03/28 04:43:52;;;;;;;;;0.00;0.00;;;;;11.78;100.00;97718.19;2102708;28;46765;-64
2024/03/28 04:44:53;;;;;;;;;0.00;0.00;;;;;11.77;100.00;97724.47;2103957;28;46610;-64
2024/03/28 04:45:53;;;;;;;;;0.00;0.00;;;;;11.73;100.00;97726.53;2096526;28;46568;-64
2024/03/28 04:46:55;;;;;;;;;0.00;0.00;;;;;11.71;100.00;97722.28;2100038;28;46227;-64
2024/03/28 04:47:55;;;;;;;;;0.00;0.00;;;;;11.65;100.00;97728.88;2104831;27;46692;-63